sensor_id;sensor_type;location;lat;lon;timestamp;temperature;humidity
67502;SHT30;54349;52.528;19.760;2022-11-23T00:01:34;23.19;41.43
67502;SHT30;54349;52.528;19.760;2022-11-23T00:04:05;23.20;41.42
67502;SHT30;54349;52.528;19.760;2022-11-23T00:06:36;23.20;41.47
67502;SHT30;54349;52.528;19.760;2022-11-23T00:09:06;23.21;41.53
67502;SHT30;54349;52.528;19.760;2022-11-23T00:11:35;23.21;41.52
67502;SHT30;54349;52.528;19.760;2022-11-23T00:14:03;23.21;41.50
67502;SHT30;54349;52.528;19.760;2022-11-23T00:16:32;23.23;41.54
67502;SHT30;54349;52.528;19.760;2022-11-23T00:19:00;23.24;41.61
67502;SHT30;54349;52.528;19.760;2022-11-23T00:21:30;23.25;41.70
67502;SHT30;54349;52.528;19.760;2022-11-23T00:23:59;23.25;41.70
67502;SHT30;54349;52.528;19.760;2022-11-23T00:26:27;23.25;41.73
67502;SHT30;54349;52.528;19.760;2022-11-23T00:28:55;23.25;41.75
67502;SHT30;54349;52.528;19.760;2022-11-23T00:31:26;23.26;41.73
67502;SHT30;54349;52.528;19.760;2022-11-23T00:33:55;23.27;41.77
67502;SHT30;54349;52.528;19.760;2022-11-23T00:36:25;23.27;41.83
67502;SHT30;54349;52.528;19.760;2022-11-23T00:38:54;23.28;41.94
67502;SHT30;54349;52.528;19.760;2022-11-23T00:41:25;23.28;42.00
67502;SHT30;54349;52.528;19.760;2022-11-23T00:43:54;23.29;42.03
67502;SHT30;54349;52.528;19.760;2022-11-23T00:46:24;23.29;42.06
67502;SHT30;54349;52.528;19.760;2022-11-23T00:48:56;23.30;42.07
67502;SHT30;54349;52.528;19.760;2022-11-23T00:51:26;23.30;42.08
67502;SHT30;54349;52.528;19.760;2022-11-23T00:53:58;23.31;42.11
67502;SHT30;54349;52.528;19.760;2022-11-23T00:56:28;23.31;42.13
67502;SHT30;54349;52.528;19.760;2022-11-23T00:58:59;23.32;42.12
67502;SHT30;54349;52.528;19.760;2022-11-23T01:01:30;23.32;42.17
67502;SHT30;54349;52.528;19.760;2022-11-23T01:04:04;23.32;42.21
67502;SHT30;54349;52.528;19.760;2022-11-23T01:06:36;23.32;42.20
67502;SHT30;54349;52.528;19.760;2022-11-23T01:09:09;23.32;42.27
67502;SHT30;54349;52.528;19.760;2022-11-23T01:11:44;23.32;42.34
67502;SHT30;54349;52.528;19.760;2022-11-23T01:14:12;23.33;42.42
67502;SHT30;54349;52.528;19.760;2022-11-23T01:16:41;23.34;42.50
67502;SHT30;54349;52.528;19.760;2022-11-23T01:19:10;23.33;42.55
67502;SHT30;54349;52.528;19.760;2022-11-23T01:21:42;23.33;42.69
67502;SHT30;54349;52.528;19.760;2022-11-23T01:24:12;23.34;42.80
67502;SHT30;54349;52.528;19.760;2022-11-23T01:26:43;23.35;42.78
67502;SHT30;54349;52.528;19.760;2022-11-23T01:29:13;23.33;42.48
67502;SHT30;54349;52.528;19.760;2022-11-23T01:31:41;23.31;42.23
67502;SHT30;54349;52.528;19.760;2022-11-23T01:34:16;23.28;42.12
67502;SHT30;54349;52.528;19.760;2022-11-23T01:36:45;23.25;41.94
67502;SHT30;54349;52.528;19.760;2022-11-23T01:39:13;23.22;41.83
67502;SHT30;54349;52.528;19.760;2022-11-23T01:41:42;23.19;41.75
67502;SHT30;54349;52.528;19.760;2022-11-23T01:44:20;23.15;41.63
67502;SHT30;54349;52.528;19.760;2022-11-23T01:46:53;23.12;41.52
67502;SHT30;54349;52.528;19.760;2022-11-23T01:49:26;23.09;41.44
67502;SHT30;54349;52.528;19.760;2022-11-23T01:52:06;23.06;41.35
67502;SHT30;54349;52.528;19.760;2022-11-23T01:54:44;23.03;41.32
67502;SHT30;54349;52.528;19.760;2022-11-23T01:57:18;23.00;41.22
67502;SHT30;54349;52.528;19.760;2022-11-23T01:59:53;22.97;41.16
67502;SHT30;54349;52.528;19.760;2022-11-23T02:02:23;22.96;41.13
67502;SHT30;54349;52.528;19.760;2022-11-23T02:04:55;22.92;41.07
67502;SHT30;54349;52.528;19.760;2022-11-23T02:07:27;22.90;41.01
67502;SHT30;54349;52.528;19.760;2022-11-23T02:09:57;22.87;41.01
67502;SHT30;54349;52.528;19.760;2022-11-23T02:12:26;22.84;40.97
67502;SHT30;54349;52.528;19.760;2022-11-23T02:14:54;22.82;40.90
67502;SHT30;54349;52.528;19.760;2022-11-23T02:17:22;22.79;40.90
67502;SHT30;54349;52.528;19.760;2022-11-23T02:22:22;22.74;40.89
67502;SHT30;54349;52.528;19.760;2022-11-23T02:24:57;22.71;40.81
67502;SHT30;54349;52.528;19.760;2022-11-23T02:27:31;22.70;40.80
67502;SHT30;54349;52.528;19.760;2022-11-23T02:30:01;22.68;40.76
67502;SHT30;54349;52.528;19.760;2022-11-23T02:32:30;22.65;40.76
67502;SHT30;54349;52.528;19.760;2022-11-23T02:35:00;22.64;40.69
67502;SHT30;54349;52.528;19.760;2022-11-23T02:37:28;22.61;40.63
67502;SHT30;54349;52.528;19.760;2022-11-23T02:39:56;22.58;40.63
67502;SHT30;54349;52.528;19.760;2022-11-23T02:42:34;22.56;40.63
67502;SHT30;54349;52.528;19.760;2022-11-23T02:45:09;22.54;40.61
67502;SHT30;54349;52.528;19.760;2022-11-23T02:47:52;22.51;40.54
67502;SHT30;54349;52.528;19.760;2022-11-23T02:50:21;22.49;40.58
67502;SHT30;54349;52.528;19.760;2022-11-23T02:52:51;22.47;40.54
67502;SHT30;54349;52.528;19.760;2022-11-23T02:55:19;22.44;40.52
67502;SHT30;54349;52.528;19.760;2022-11-23T02:57:47;22.43;40.51
67502;SHT30;54349;52.528;19.760;2022-11-23T03:00:16;22.40;40.43
67502;SHT30;54349;52.528;19.760;2022-11-23T03:02:47;22.39;40.43
67502;SHT30;54349;52.528;19.760;2022-11-23T03:05:16;22.36;40.37
67502;SHT30;54349;52.528;19.760;2022-11-23T03:07:44;22.33;40.30
67502;SHT30;54349;52.528;19.760;2022-11-23T03:10:13;22.31;40.36
67502;SHT30;54349;52.528;19.760;2022-11-23T03:12:43;22.27;40.21
67502;SHT30;54349;52.528;19.760;2022-11-23T03:15:13;22.24;40.23
67502;SHT30;54349;52.528;19.760;2022-11-23T03:17:42;22.21;40.23
67502;SHT30;54349;52.528;19.760;2022-11-23T03:20:11;22.18;40.15
67502;SHT30;54349;52.528;19.760;2022-11-23T03:22:41;22.16;40.11
67502;SHT30;54349;52.528;19.760;2022-11-23T03:25:12;22.14;40.07
67502;SHT30;54349;52.528;19.760;2022-11-23T03:27:41;22.11;40.21
67502;SHT30;54349;52.528;19.760;2022-11-23T03:30:10;22.09;40.19
67502;SHT30;54349;52.528;19.760;2022-11-23T03:32:39;22.08;40.17
67502;SHT30;54349;52.528;19.760;2022-11-23T03:35:07;22.06;40.20
67502;SHT30;54349;52.528;19.760;2022-11-23T03:37:41;22.05;40.09
67502;SHT30;54349;52.528;19.760;2022-11-23T03:40:09;22.02;40.17
67502;SHT30;54349;52.528;19.760;2022-11-23T03:43:11;21.99;40.16
67502;SHT30;54349;52.528;19.760;2022-11-23T03:45:41;21.98;40.14
67502;SHT30;54349;52.528;19.760;2022-11-23T03:48:10;21.96;40.20
67502;SHT30;54349;52.528;19.760;2022-11-23T03:50:39;21.94;40.20
67502;SHT30;54349;52.528;19.760;2022-11-23T03:53:07;21.92;40.19
67502;SHT30;54349;52.528;19.760;2022-11-23T03:55:36;21.90;40.14
67502;SHT30;54349;52.528;19.760;2022-11-23T03:58:04;21.88;40.18
67502;SHT30;54349;52.528;19.760;2022-11-23T04:00:34;21.86;40.10
67502;SHT30;54349;52.528;19.760;2022-11-23T04:03:03;21.84;39.98
67502;SHT30;54349;52.528;19.760;2022-11-23T04:05:50;21.79;39.82
67502;SHT30;54349;52.528;19.760;2022-11-23T04:08:45;21.76;39.97
67502;SHT30;54349;52.528;19.760;2022-11-23T04:11:19;21.72;39.84
67502;SHT30;54349;52.528;19.760;2022-11-23T04:13:48;21.69;39.81
67502;SHT30;54349;52.528;19.760;2022-11-23T04:16:18;21.66;39.92
67502;SHT30;54349;52.528;19.760;2022-11-23T04:18:46;21.65;39.85
67502;SHT30;54349;52.528;19.760;2022-11-23T04:21:14;21.63;39.82
67502;SHT30;54349;52.528;19.760;2022-11-23T04:23:43;21.61;39.81
67502;SHT30;54349;52.528;19.760;2022-11-23T04:26:13;21.59;39.78
67502;SHT30;54349;52.528;19.760;2022-11-23T04:28:43;21.58;39.84
67502;SHT30;54349;52.528;19.760;2022-11-23T04:31:12;21.56;39.82
67502;SHT30;54349;52.528;19.760;2022-11-23T04:33:48;21.54;39.72
67502;SHT30;54349;52.528;19.760;2022-11-23T04:36:18;21.57;39.55
67502;SHT30;54349;52.528;19.760;2022-11-23T04:38:46;21.63;39.47
67502;SHT30;54349;52.528;19.760;2022-11-23T04:41:15;21.72;39.28
67502;SHT30;54349;52.528;19.760;2022-11-23T04:43:46;21.82;39.20
67502;SHT30;54349;52.528;19.760;2022-11-23T04:46:15;21.93;39.04
67502;SHT30;54349;52.528;19.760;2022-11-23T04:48:44;22.01;38.87
67502;SHT30;54349;52.528;19.760;2022-11-23T04:51:14;22.10;38.78
67502;SHT30;54349;52.528;19.760;2022-11-23T04:53:43;22.18;38.65
67502;SHT30;54349;52.528;19.760;2022-11-23T04:56:12;22.28;38.50
67502;SHT30;54349;52.528;19.760;2022-11-23T04:58:41;22.36;38.44
67502;SHT30;54349;52.528;19.760;2022-11-23T05:01:10;22.45;38.38
67502;SHT30;54349;52.528;19.760;2022-11-23T05:03:57;22.52;38.17
67502;SHT30;54349;52.528;19.760;2022-11-23T05:06:27;22.58;38.12
67502;SHT30;54349;52.528;19.760;2022-11-23T05:08:55;22.66;38.08
67502;SHT30;54349;52.528;19.760;2022-11-23T05:11:46;22.72;37.96
67502;SHT30;54349;52.528;19.760;2022-11-23T05:14:15;22.77;37.91
67502;SHT30;54349;52.528;19.760;2022-11-23T05:16:43;22.83;37.87
67502;SHT30;54349;52.528;19.760;2022-11-23T05:19:12;22.88;37.77
67502;SHT30;54349;52.528;19.760;2022-11-23T05:21:41;22.93;37.66
67502;SHT30;54349;52.528;19.760;2022-11-23T05:24:11;22.98;37.59
67502;SHT30;54349;52.528;19.760;2022-11-23T05:26:43;23.02;37.54
67502;SHT30;54349;52.528;19.760;2022-11-23T05:29:11;23.06;37.44
67502;SHT30;54349;52.528;19.760;2022-11-23T05:31:39;23.10;37.36
67502;SHT30;54349;52.528;19.760;2022-11-23T05:34:07;23.15;37.32
67502;SHT30;54349;52.528;19.760;2022-11-23T05:36:43;23.18;37.42
67502;SHT30;54349;52.528;19.760;2022-11-23T05:39:11;23.22;37.51
67502;SHT30;54349;52.528;19.760;2022-11-23T05:41:39;23.24;37.61
67502;SHT30;54349;52.528;19.760;2022-11-23T05:44:18;23.27;37.54
67502;SHT30;54349;52.528;19.760;2022-11-23T05:46:47;23.29;37.48
67502;SHT30;54349;52.528;19.760;2022-11-23T05:49:15;23.32;37.45
67502;SHT30;54349;52.528;19.760;2022-11-23T05:51:43;23.35;37.41
67502;SHT30;54349;52.528;19.760;2022-11-23T05:54:12;23.39;37.51
67502;SHT30;54349;52.528;19.760;2022-11-23T05:56:45;23.41;37.50
67502;SHT30;54349;52.528;19.760;2022-11-23T05:59:17;23.44;37.45
67502;SHT30;54349;52.528;19.760;2022-11-23T06:01:49;23.46;37.43
67502;SHT30;54349;52.528;19.760;2022-11-23T06:04:24;23.48;37.33
67502;SHT30;54349;52.528;19.760;2022-11-23T06:06:52;23.49;37.29
67502;SHT30;54349;52.528;19.760;2022-11-23T06:09:35;23.50;37.28
67502;SHT30;54349;52.528;19.760;2022-11-23T06:12:06;23.53;37.21
67502;SHT30;54349;52.528;19.760;2022-11-23T06:14:35;23.53;37.13
67502;SHT30;54349;52.528;19.760;2022-11-23T06:17:03;23.53;37.14
67502;SHT30;54349;52.528;19.760;2022-11-23T06:19:42;23.54;37.11
67502;SHT30;54349;52.528;19.760;2022-11-23T06:22:11;23.56;37.15
67502;SHT30;54349;52.528;19.760;2022-11-23T06:25:02;23.55;37.11
67502;SHT30;54349;52.528;19.760;2022-11-23T06:27:34;23.56;37.12
67502;SHT30;54349;52.528;19.760;2022-11-23T06:30:06;23.57;37.09
67502;SHT30;54349;52.528;19.760;2022-11-23T06:32:36;23.58;37.04
67502;SHT30;54349;52.528;19.760;2022-11-23T06:35:04;23.57;37.04
67502;SHT30;54349;52.528;19.760;2022-11-23T06:37:35;23.57;37.00
67502;SHT30;54349;52.528;19.760;2022-11-23T06:40:03;23.57;36.98
67502;SHT30;54349;52.528;19.760;2022-11-23T06:42:33;23.56;36.95
67502;SHT30;54349;52.528;19.760;2022-11-23T06:45:13;23.57;36.98
67502;SHT30;54349;52.528;19.760;2022-11-23T06:47:44;23.57;37.00
67502;SHT30;54349;52.528;19.760;2022-11-23T06:50:13;23.57;36.96
67502;SHT30;54349;52.528;19.760;2022-11-23T06:52:44;23.56;36.94
67502;SHT30;54349;52.528;19.760;2022-11-23T06:55:12;23.56;36.96
67502;SHT30;54349;52.528;19.760;2022-11-23T06:57:40;23.58;36.92
67502;SHT30;54349;52.528;19.760;2022-11-23T07:00:09;23.57;36.91
67502;SHT30;54349;52.528;19.760;2022-11-23T07:02:38;23.57;36.90
67502;SHT30;54349;52.528;19.760;2022-11-23T07:05:07;23.57;36.89
67502;SHT30;54349;52.528;19.760;2022-11-23T07:07:36;23.58;36.85
67502;SHT30;54349;52.528;19.760;2022-11-23T07:10:09;23.57;36.88
67502;SHT30;54349;52.528;19.760;2022-11-23T07:12:46;23.56;36.89
67502;SHT30;54349;52.528;19.760;2022-11-23T07:15:16;23.56;36.88
67502;SHT30;54349;52.528;19.760;2022-11-23T07:17:44;23.55;36.83
67502;SHT30;54349;52.528;19.760;2022-11-23T07:20:13;23.56;36.82
67502;SHT30;54349;52.528;19.760;2022-11-23T07:22:43;23.56;36.79
67502;SHT30;54349;52.528;19.760;2022-11-23T07:25:11;23.57;36.80
67502;SHT30;54349;52.528;19.760;2022-11-23T07:27:43;23.56;36.77
67502;SHT30;54349;52.528;19.760;2022-11-23T07:30:12;23.57;36.72
67502;SHT30;54349;52.528;19.760;2022-11-23T07:32:40;23.56;36.72
67502;SHT30;54349;52.528;19.760;2022-11-23T07:35:09;23.56;36.73
67502;SHT30;54349;52.528;19.760;2022-11-23T07:37:38;23.55;36.74
67502;SHT30;54349;52.528;19.760;2022-11-23T07:40:07;23.56;36.72
67502;SHT30;54349;52.528;19.760;2022-11-23T07:42:36;23.55;36.70
67502;SHT30;54349;52.528;19.760;2022-11-23T07:45:12;23.56;36.69
67502;SHT30;54349;52.528;19.760;2022-11-23T07:47:44;23.55;36.66
67502;SHT30;54349;52.528;19.760;2022-11-23T07:50:13;23.56;36.63
67502;SHT30;54349;52.528;19.760;2022-11-23T07:52:41;23.56;36.63
67502;SHT30;54349;52.528;19.760;2022-11-23T07:55:09;23.56;36.61
67502;SHT30;54349;52.528;19.760;2022-11-23T07:57:37;23.56;36.63
67502;SHT30;54349;52.528;19.760;2022-11-23T08:00:06;23.54;36.63
67502;SHT30;54349;52.528;19.760;2022-11-23T08:02:39;23.55;36.62
67502;SHT30;54349;52.528;19.760;2022-11-23T08:05:30;23.55;36.59
67502;SHT30;54349;52.528;19.760;2022-11-23T08:08:02;23.54;36.55
67502;SHT30;54349;52.528;19.760;2022-11-23T08:10:30;23.54;36.59
67502;SHT30;54349;52.528;19.760;2022-11-23T08:13:00;23.55;36.57
67502;SHT30;54349;52.528;19.760;2022-11-23T08:15:31;23.55;36.54
67502;SHT30;54349;52.528;19.760;2022-11-23T08:18:00;23.55;36.56
67502;SHT30;54349;52.528;19.760;2022-11-23T08:20:31;23.56;36.56
67502;SHT30;54349;52.528;19.760;2022-11-23T08:23:00;23.56;36.48
67502;SHT30;54349;52.528;19.760;2022-11-23T08:25:28;23.55;36.50
67502;SHT30;54349;52.528;19.760;2022-11-23T08:27:57;23.55;36.50
67502;SHT30;54349;52.528;19.760;2022-11-23T08:30:32;23.56;36.50
67502;SHT30;54349;52.528;19.760;2022-11-23T08:33:02;23.56;36.45
67502;SHT30;54349;52.528;19.760;2022-11-23T08:35:35;23.56;36.45
67502;SHT30;54349;52.528;19.760;2022-11-23T08:38:05;23.56;36.48
67502;SHT30;54349;52.528;19.760;2022-11-23T08:40:36;23.56;36.50
67502;SHT30;54349;52.528;19.760;2022-11-23T08:43:05;23.56;36.50
67502;SHT30;54349;52.528;19.760;2022-11-23T08:45:34;23.56;36.49
67502;SHT30;54349;52.528;19.760;2022-11-23T08:48:03;23.55;36.50
67502;SHT30;54349;52.528;19.760;2022-11-23T08:50:32;23.56;36.49
67502;SHT30;54349;52.528;19.760;2022-11-23T08:53:02;23.56;36.41
67502;SHT30;54349;52.528;19.760;2022-11-23T08:55:30;23.55;36.44
67502;SHT30;54349;52.528;19.760;2022-11-23T08:57:59;23.56;36.44
67502;SHT30;54349;52.528;19.760;2022-11-23T09:00:27;23.57;36.43
67502;SHT30;54349;52.528;19.760;2022-11-23T09:02:56;23.58;36.42
67502;SHT30;54349;52.528;19.760;2022-11-23T09:05:28;23.58;36.42
67502;SHT30;54349;52.528;19.760;2022-11-23T09:08:00;23.58;36.42
67502;SHT30;54349;52.528;19.760;2022-11-23T09:10:28;23.58;36.41
67502;SHT30;54349;52.528;19.760;2022-11-23T09:12:57;23.59;36.39
67502;SHT30;54349;52.528;19.760;2022-11-23T09:15:26;23.58;36.40
67502;SHT30;54349;52.528;19.760;2022-11-23T09:17:54;23.58;36.40
67502;SHT30;54349;52.528;19.760;2022-11-23T09:20:24;23.59;36.38
67502;SHT30;54349;52.528;19.760;2022-11-23T09:22:53;23.58;36.34
67502;SHT30;54349;52.528;19.760;2022-11-23T09:25:22;23.59;36.35
67502;SHT30;54349;52.528;19.760;2022-11-23T09:27:55;23.60;36.34
67502;SHT30;54349;52.528;19.760;2022-11-23T09:30:26;23.60;36.30
67502;SHT30;54349;52.528;19.760;2022-11-23T09:32:55;23.60;36.29
67502;SHT30;54349;52.528;19.760;2022-11-23T09:35:25;23.60;36.30
67502;SHT30;54349;52.528;19.760;2022-11-23T09:37:54;23.61;36.31
67502;SHT30;54349;52.528;19.760;2022-11-23T09:40:31;23.62;36.30
67502;SHT30;54349;52.528;19.760;2022-11-23T09:43:21;23.62;36.24
67502;SHT30;54349;52.528;19.760;2022-11-23T09:51:41;23.63;36.21
67502;SHT30;54349;52.528;19.760;2022-11-23T09:54:20;23.63;36.20
67502;SHT30;54349;52.528;19.760;2022-11-23T09:57:01;23.63;36.22
67502;SHT30;54349;52.528;19.760;2022-11-23T09:59:38;23.63;36.20
67502;SHT30;54349;52.528;19.760;2022-11-23T10:02:18;23.63;36.19
67502;SHT30;54349;52.528;19.760;2022-11-23T10:04:51;23.64;36.17
67502;SHT30;54349;52.528;19.760;2022-11-23T10:10:03;23.63;36.20
67502;SHT30;54349;52.528;19.760;2022-11-23T10:18:50;23.63;36.19
67502;SHT30;54349;52.528;19.760;2022-11-23T10:21:38;23.63;36.13
67502;SHT30;54349;52.528;19.760;2022-11-23T10:24:32;23.63;36.09
67502;SHT30;54349;52.528;19.760;2022-11-23T10:27:12;23.62;36.10
67502;SHT30;54349;52.528;19.760;2022-11-23T10:29:45;23.62;36.11
67502;SHT30;54349;52.528;19.760;2022-11-23T10:32:32;23.63;36.09
67502;SHT30;54349;52.528;19.760;2022-11-23T10:35:16;23.61;36.07
67502;SHT30;54349;52.528;19.760;2022-11-23T10:37:52;23.60;36.09
67502;SHT30;54349;52.528;19.760;2022-11-23T10:41:06;23.61;36.05
67502;SHT30;54349;52.528;19.760;2022-11-23T10:46:44;23.61;36.04
67502;SHT30;54349;52.528;19.760;2022-11-23T10:49:23;23.61;36.04
67502;SHT30;54349;52.528;19.760;2022-11-23T10:52:04;23.62;36.00
67502;SHT30;54349;52.528;19.760;2022-11-23T10:54:57;23.61;36.06
67502;SHT30;54349;52.528;19.760;2022-11-23T10:57:41;23.61;36.24
67502;SHT30;54349;52.528;19.760;2022-11-23T11:02:45;23.63;36.61
67502;SHT30;54349;52.528;19.760;2022-11-23T11:08:14;23.61;37.02
67502;SHT30;54349;52.528;19.760;2022-11-23T11:10:47;23.63;37.19
67502;SHT30;54349;52.528;19.760;2022-11-23T11:13:31;23.64;37.32
67502;SHT30;54349;52.528;19.760;2022-11-23T11:16:33;23.65;37.45
67502;SHT30;54349;52.528;19.760;2022-11-23T11:22:25;23.67;37.44
67502;SHT30;54349;52.528;19.760;2022-11-23T11:25:02;23.68;37.50
67502;SHT30;54349;52.528;19.760;2022-11-23T11:27:33;23.69;37.58
67502;SHT30;54349;52.528;19.760;2022-11-23T11:30:04;23.70;37.53
67502;SHT30;54349;52.528;19.760;2022-11-23T11:35:30;23.71;37.67
67502;SHT30;54349;52.528;19.760;2022-11-23T11:38:10;23.71;37.71
67502;SHT30;54349;52.528;19.760;2022-11-23T11:40:54;23.73;37.68
67502;SHT30;54349;52.528;19.760;2022-11-23T11:43:28;23.72;37.72
67502;SHT30;54349;52.528;19.760;2022-11-23T11:46:11;23.72;37.85
67502;SHT30;54349;52.528;19.760;2022-11-23T11:55:10;23.70;38.08
67502;SHT30;54349;52.528;19.760;2022-11-23T11:57:54;23.69;38.24
67502;SHT30;54349;52.528;19.760;2022-11-23T12:00:32;23.68;38.30
67502;SHT30;54349;52.528;19.760;2022-11-23T12:06:12;23.65;38.47
67502;SHT30;54349;52.528;19.760;2022-11-23T12:09:25;23.65;38.56
67502;SHT30;54349;52.528;19.760;2022-11-23T12:12:03;23.64;38.58
67502;SHT30;54349;52.528;19.760;2022-11-23T12:14:46;23.61;38.58
67502;SHT30;54349;52.528;19.760;2022-11-23T12:26:28;23.58;38.87
67502;SHT30;54349;52.528;19.760;2022-11-23T12:32:37;23.57;39.06
67502;SHT30;54349;52.528;19.760;2022-11-23T12:35:21;23.56;39.09
67502;SHT30;54349;52.528;19.760;2022-11-23T12:41:08;23.53;39.08
67502;SHT30;54349;52.528;19.760;2022-11-23T12:43:59;23.52;38.96
67502;SHT30;54349;52.528;19.760;2022-11-23T12:50:04;23.51;38.96
67502;SHT30;54349;52.528;19.760;2022-11-23T13:03:46;23.53;39.49
67502;SHT30;54349;52.528;19.760;2022-11-23T13:07:36;23.56;39.39
67502;SHT30;54349;52.528;19.760;2022-11-23T13:10:12;23.58;39.41
67502;SHT30;54349;52.528;19.760;2022-11-23T13:13:09;23.60;39.41
67502;SHT30;54349;52.528;19.760;2022-11-23T13:22:14;23.66;39.19
67502;SHT30;54349;52.528;19.760;2022-11-23T13:27:43;23.67;39.00
67502;SHT30;54349;52.528;19.760;2022-11-23T13:33:23;23.69;38.99
67502;SHT30;54349;52.528;19.760;2022-11-23T13:36:02;23.70;38.97
67502;SHT30;54349;52.528;19.760;2022-11-23T13:38:42;23.69;38.77
67502;SHT30;54349;52.528;19.760;2022-11-23T13:46:57;23.61;38.24
67502;SHT30;54349;52.528;19.760;2022-11-23T13:55:05;23.52;37.98
67502;SHT30;54349;52.528;19.760;2022-11-23T14:00:54;23.45;37.91
67502;SHT30;54349;52.528;19.760;2022-11-23T14:12:17;23.40;39.13
67502;SHT30;54349;52.528;19.760;2022-11-23T14:15:14;23.39;39.40
67502;SHT30;54349;52.528;19.760;2022-11-23T14:30:25;23.34;39.52
67502;SHT30;54349;52.528;19.760;2022-11-23T14:33:33;23.31;39.08
67502;SHT30;54349;52.528;19.760;2022-11-23T14:42:34;23.22;38.80
67502;SHT30;54349;52.528;19.760;2022-11-23T14:45:11;23.21;38.88
67502;SHT30;54349;52.528;19.760;2022-11-23T14:47:42;23.18;38.90
67502;SHT30;54349;52.528;19.760;2022-11-23T14:50:27;23.18;38.87
67502;SHT30;54349;52.528;19.760;2022-11-23T14:53:05;23.16;38.94
67502;SHT30;54349;52.528;19.760;2022-11-23T14:55:38;23.15;39.18
67502;SHT30;54349;52.528;19.760;2022-11-23T14:58:06;23.15;39.36
67502;SHT30;54349;52.528;19.760;2022-11-23T15:00:36;23.17;39.50
67502;SHT30;54349;52.528;19.760;2022-11-23T15:03:12;23.18;39.60
67502;SHT30;54349;52.528;19.760;2022-11-23T15:06:09;23.20;39.76
67502;SHT30;54349;52.528;19.760;2022-11-23T15:08:51;23.21;40.13
67502;SHT30;54349;52.528;19.760;2022-11-23T15:12:05;23.26;40.52
67502;SHT30;54349;52.528;19.760;2022-11-23T15:14:55;23.32;40.75
67502;SHT30;54349;52.528;19.760;2022-11-23T15:17:24;23.37;40.94
67502;SHT30;54349;52.528;19.760;2022-11-23T15:19:59;23.42;41.04
67502;SHT30;54349;52.528;19.760;2022-11-23T15:22:29;23.46;41.12
67502;SHT30;54349;52.528;19.760;2022-11-23T15:25:05;23.49;41.19
67502;SHT30;54349;52.528;19.760;2022-11-23T15:27:37;23.52;41.24
67502;SHT30;54349;52.528;19.760;2022-11-23T15:30:18;23.55;41.36
67502;SHT30;54349;52.528;19.760;2022-11-23T15:32:58;23.57;41.42
67502;SHT30;54349;52.528;19.760;2022-11-23T15:35:30;23.58;41.47
67502;SHT30;54349;52.528;19.760;2022-11-23T15:38:03;23.59;41.54
67502;SHT30;54349;52.528;19.760;2022-11-23T15:40:47;23.60;41.61
67502;SHT30;54349;52.528;19.760;2022-11-23T15:43:18;23.61;41.36
67502;SHT30;54349;52.528;19.760;2022-11-23T15:48:36;23.63;41.20
67502;SHT30;54349;52.528;19.760;2022-11-23T15:51:05;23.64;41.26
67502;SHT30;54349;52.528;19.760;2022-11-23T15:53:48;23.65;41.25
67502;SHT30;54349;52.528;19.760;2022-11-23T15:56:29;23.64;41.13
67502;SHT30;54349;52.528;19.760;2022-11-23T15:59:01;23.65;41.09
67502;SHT30;54349;52.528;19.760;2022-11-23T16:01:51;23.64;40.93
67502;SHT30;54349;52.528;19.760;2022-11-23T16:04:25;23.64;40.78
67502;SHT30;54349;52.528;19.760;2022-11-23T16:07:05;23.63;40.60
67502;SHT30;54349;52.528;19.760;2022-11-23T16:12:34;23.61;40.29
67502;SHT30;54349;52.528;19.760;2022-11-23T16:15:29;23.58;40.06
67502;SHT30;54349;52.528;19.760;2022-11-23T16:17:59;23.56;39.99
67502;SHT30;54349;52.528;19.760;2022-11-23T16:20:29;23.54;39.94
67502;SHT30;54349;52.528;19.760;2022-11-23T16:22:58;23.52;39.88
67502;SHT30;54349;52.528;19.760;2022-11-23T16:25:29;23.50;39.82
67502;SHT30;54349;52.528;19.760;2022-11-23T16:28:01;23.48;39.73
67502;SHT30;54349;52.528;19.760;2022-11-23T16:30:44;23.47;39.66
67502;SHT30;54349;52.528;19.760;2022-11-23T16:33:17;23.44;39.65
67502;SHT30;54349;52.528;19.760;2022-11-23T16:35:47;23.41;39.60
67502;SHT30;54349;52.528;19.760;2022-11-23T16:38:17;23.39;39.55
67502;SHT30;54349;52.528;19.760;2022-11-23T16:40:46;23.36;39.50
67502;SHT30;54349;52.528;19.760;2022-11-23T16:43:15;23.34;39.45
67502;SHT30;54349;52.528;19.760;2022-11-23T16:45:45;23.32;39.45
67502;SHT30;54349;52.528;19.760;2022-11-23T16:50:52;23.29;39.36
67502;SHT30;54349;52.528;19.760;2022-11-23T16:53:22;23.28;39.30
67502;SHT30;54349;52.528;19.760;2022-11-23T16:56:01;23.29;39.19
67502;SHT30;54349;52.528;19.760;2022-11-23T16:58:32;23.30;39.17
67502;SHT30;54349;52.528;19.760;2022-11-23T17:01:02;23.30;39.10
67502;SHT30;54349;52.528;19.760;2022-11-23T17:03:31;23.32;39.00
67502;SHT30;54349;52.528;19.760;2022-11-23T17:06:00;23.35;38.90
67502;SHT30;54349;52.528;19.760;2022-11-23T17:08:29;23.36;38.84
67502;SHT30;54349;52.528;19.760;2022-11-23T17:10:57;23.38;38.78
67502;SHT30;54349;52.528;19.760;2022-11-23T17:13:26;23.40;38.65
67502;SHT30;54349;52.528;19.760;2022-11-23T17:15:56;23.41;38.61
67502;SHT30;54349;52.528;19.760;2022-11-23T17:18:24;23.42;38.61
67502;SHT30;54349;52.528;19.760;2022-11-23T17:20:52;23.44;38.54
67502;SHT30;54349;52.528;19.760;2022-11-23T17:23:22;23.45;38.50
67502;SHT30;54349;52.528;19.760;2022-11-23T17:25:51;23.47;38.48
67502;SHT30;54349;52.528;19.760;2022-11-23T17:28:19;23.47;38.48
67502;SHT30;54349;52.528;19.760;2022-11-23T17:30:48;23.49;38.40
67502;SHT30;54349;52.528;19.760;2022-11-23T17:33:17;23.49;38.40
67502;SHT30;54349;52.528;19.760;2022-11-23T17:35:47;23.50;38.36
67502;SHT30;54349;52.528;19.760;2022-11-23T17:38:16;23.50;38.35
67502;SHT30;54349;52.528;19.760;2022-11-23T17:40:50;23.49;38.32
67502;SHT30;54349;52.528;19.760;2022-11-23T17:43:19;23.47;38.47
67502;SHT30;54349;52.528;19.760;2022-11-23T17:45:47;23.47;38.46
67502;SHT30;54349;52.528;19.760;2022-11-23T17:48:16;23.45;38.42
67502;SHT30;54349;52.528;19.760;2022-11-23T17:50:44;23.45;38.35
67502;SHT30;54349;52.528;19.760;2022-11-23T17:53:14;23.44;38.33
67502;SHT30;54349;52.528;19.760;2022-11-23T17:55:45;23.43;38.37
67502;SHT30;54349;52.528;19.760;2022-11-23T17:58:13;23.40;38.30
67502;SHT30;54349;52.528;19.760;2022-11-23T18:00:41;23.39;38.32
67502;SHT30;54349;52.528;19.760;2022-11-23T18:03:10;23.37;38.32
67502;SHT30;54349;52.528;19.760;2022-11-23T18:05:39;23.35;38.25
67502;SHT30;54349;52.528;19.760;2022-11-23T18:08:08;23.33;38.30